Time;durP1;ratioP1;P1;durP2;ratioP2;P2;SDS_P1;SDS_P2;PMS_P1;PMS_P2;Temp;Humidity;BMP_temperature;BMP_pressure;BME280_temperature;BME280_humidity;BME280_pressure;Samples;Min_cycle;Max_cycle;Signal;HPM_P1;HPM_P2
2022/04/23 00:00:50;;;;;;;;;;;;;;;17.25;43.93;100116.19;5097500;28;794;-57
2022/04/23 00:03:15;;;;;;;;;;;;;;;17.29;43.98;100122.72;5097794;28;990;-56
2022/04/23 00:05:41;;;;;;;;;;;;;;;17.31;43.96;100125.19;5097346;28;773;-56
2022/04/23 00:08:06;;;;;;;;;;;;;;;17.28;44.15;100121.91;5096508;28;952;-56
2022/04/23 00:10:32;;;;;;;;;;;;;;;17.24;44.02;100120.88;5096982;28;1041;-55
2022/04/23 00:12:59;;;;;;;;;;;;;;;17.30;44.32;100118.88;5100145;28;1010;-57
2022/04/23 00:15:25;;;;;;;;;;;;;;;17.30;44.08;100107.88;5097678;28;1969;-57
2022/04/23 00:17:51;;;;;;;;;;;;;;;17.30;44.12;100102.38;5102985;28;854;-57
2022/04/23 00:20:18;;;;;;;;;;;;;;;17.30;44.19;100096.09;5096874;28;885;-57
2022/04/23 00:22:44;;;;;;;;;;;;;;;17.31;44.25;100103.22;5096617;28;809;-57
2022/04/23 00:25:09;;;;;;;;;;;;;;;17.25;44.47;100091.44;5096874;28;726;-56
2022/04/23 00:27:35;;;;;;;;;;;;;;;17.28;44.46;100110.13;5097995;28;844;-58
2022/04/23 00:30:00;;;;;;;;;;;;;;;17.31;44.16;100109.53;5096018;28;837;-55
2022/04/23 00:32:26;;;;;;;;;;;;;;;17.35;44.40;100115.22;5101620;28;895;-57
2022/04/23 00:34:51;;;;;;;;;;;;;;;17.37;44.48;100102.84;5096276;28;1901;-56
2022/04/23 00:37:17;;;;;;;;;;;;;;;17.36;44.75;100101.22;5096166;28;786;-56
2022/04/23 00:39:42;;;;;;;;;;;;;;;17.39;44.52;100105.28;5102377;28;766;-56
2022/04/23 00:42:09;;;;;;;;;;;;;;;17.44;44.50;100094.22;5096244;28;817;-56
2022/04/23 00:44:35;;;;;;;;;;;;;;;17.49;44.48;100077.69;5096236;28;786;-54
2022/04/23 00:47:01;;;;;;;;;;;;;;;17.49;44.96;100055.69;5100410;28;867;-55
2022/04/23 00:49:26;;;;;;;;;;;;;;;17.51;44.93;100050.69;5096478;28;840;-54
2022/04/23 00:51:52;;;;;;;;;;;;;;;17.50;45.28;100045.50;5098807;28;838;-56
2022/04/23 00:54:18;;;;;;;;;;;;;;;17.54;45.22;100052.03;5077763;28;859;-56
2022/04/23 00:56:44;;;;;;;;;;;;;;;17.57;45.31;100044.03;5078364;28;1921;-56
2022/04/23 00:59:11;;;;;;;;;;;;;;;17.57;45.37;100041.28;5096292;28;780;-55
2022/04/23 01:01:36;;;;;;;;;;;;;;;17.56;45.52;100033.34;5095675;28;899;-54
2022/04/23 01:04:06;;;;;;;;;;;;;;;17.62;45.24;100015.63;5102563;28;930;-56
2022/04/23 01:06:35;;;;;;;;;;;;;;;17.67;45.39;100026.56;5100883;28;777;-55
2022/04/23 01:09:01;;;;;;;;;;;;;;;17.67;45.42;100022.97;5100180;28;834;-56
2022/04/23 01:11:26;;;;;;;;;;;;;;;17.69;45.51;100023.50;5099973;28;1058;-56
2022/04/23 01:13:52;;;;;;;;;;;;;;;17.71;45.77;100029.50;5100072;28;1023;-56
2022/04/23 01:16:19;;;;;;;;;;;;;;;17.74;45.57;100013.25;5100627;28;1909;-56
2022/04/23 01:18:44;;;;;;;;;;;;;;;17.72;45.70;100001.72;5101426;28;1017;-55
2022/04/23 01:21:10;;;;;;;;;;;;;;;17.75;45.92;99998.38;5100019;28;781;-54
2022/04/23 01:23:36;;;;;;;;;;;;;;;17.80;46.20;100005.72;5099483;28;914;-57
2022/04/23 01:26:04;;;;;;;;;;;;;;;17.85;46.07;99980.91;5099485;28;1152;-56
2022/04/23 01:28:29;;;;;;;;;;;;;;;17.88;46.15;99984.94;5100057;28;825;-57
2022/04/23 01:30:56;;;;;;;;;;;;;;;17.83;45.99;99990.56;5087955;28;797;-55
2022/04/23 01:33:22;;;;;;;;;;;;;;;17.87;46.10;99999.84;5105857;28;827;-56
2022/04/23 01:35:48;;;;;;;;;;;;;;;17.85;46.03;100007.56;5099389;28;1909;-57
2022/04/23 01:38:13;;;;;;;;;;;;;;;17.87;46.30;100005.34;5099425;28;873;-57
2022/04/23 01:40:39;;;;;;;;;;;;;;;17.89;46.27;100017.69;5099557;28;804;-57
2022/04/23 01:43:05;;;;;;;;;;;;;;;17.89;46.09;100014.09;5103152;28;861;-57
2022/04/23 01:45:30;;;;;;;;;;;;;;;17.99;45.70;100013.94;5099442;28;813;-58
2022/04/23 01:47:56;;;;;;;;;;;;;;;17.97;46.04;100010.69;5104877;28;1013;-58
2022/04/23 01:50:21;;;;;;;;;;;;;;;17.90;46.45;99999.22;5099812;28;976;-57
2022/04/23 01:52:47;;;;;;;;;;;;;;;17.91;46.32;100006.41;5099295;28;911;-56
2022/04/23 01:55:13;;;;;;;;;;;;;;;17.92;46.43;100002.50;5098913;28;1971;-56
2022/04/23 01:57:38;;;;;;;;;;;;;;;17.92;46.54;99994.25;5099361;28;786;-55
2022/04/23 02:00:05;;;;;;;;;;;;;;;17.94;46.58;99983.78;5099312;28;800;-56
2022/04/23 02:02:37;;;;;;;;;;;;;;;17.99;46.62;100013.13;5098883;28;894;-57
2022/04/23 02:05:03;;;;;;;;;;;;;;;17.96;46.48;99989.78;5099000;28;837;-57
2022/04/23 02:07:29;;;;;;;;;;;;;;;18.07;46.21;99990.44;5101716;28;806;-57
2022/04/23 02:09:54;;;;;;;;;;;;;;;18.01;46.46;99958.66;5100077;28;793;-56
2022/04/23 02:12:20;;;;;;;;;;;;;;;17.98;46.60;99953.72;5099042;28;1013;-57
2022/04/23 02:14:45;;;;;;;;;;;;;;;17.99;46.64;99958.13;5098052;28;1984;-57
2022/04/23 02:17:10;;;;;;;;;;;;;;;18.00;46.50;99979.81;5098486;28;852;-56
2022/04/23 02:19:36;;;;;;;;;;;;;;;18.03;46.42;99970.16;5098899;28;830;-57
2022/04/23 02:22:01;;;;;;;;;;;;;;;18.03;46.32;99943.44;5099293;28;887;-57
2022/04/23 02:24:27;;;;;;;;;;;;;;;18.04;46.20;99939.59;5098893;28;758;-55
2022/04/23 02:26:52;;;;;;;;;;;;;;;18.03;46.43;99970.97;5099015;28;781;-57
2022/04/23 02:29:18;;;;;;;;;;;;;;;18.04;46.35;99972.59;5098758;28;781;-57
2022/04/23 02:31:43;;;;;;;;;;;;;;;18.04;46.11;99985.53;5098604;28;861;-57
2022/04/23 02:34:08;;;;;;;;;;;;;;;18.06;46.18;99997.88;5102950;28;804;-56
2022/04/23 02:36:35;;;;;;;;;;;;;;;18.02;46.20;99991.34;5098198;28;1909;-57
2022/04/23 02:39:02;;;;;;;;;;;;;;;17.99;46.01;99997.44;5098545;28;1500;-57
2022/04/23 02:41:28;;;;;;;;;;;;;;;17.92;46.25;100003.34;5098623;28;745;-56
2022/04/23 02:43:54;;;;;;;;;;;;;;;17.98;45.98;99990.31;5098437;28;865;-57
2022/04/23 02:46:19;;;;;;;;;;;;;;;18.01;45.96;99995.22;5099844;28;905;-57
2022/04/23 02:48:45;;;;;;;;;;;;;;;17.96;45.93;99981.53;5103783;28;855;-56
2022/04/23 02:51:15;;;;;;;;;;;;;;;17.99;45.86;99975.44;5098090;28;798;-56
2022/04/23 02:53:42;;;;;;;;;;;;;;;17.94;45.84;99986.53;5117654;28;846;-56
2022/04/23 02:56:13;;;;;;;;;;;;;;;17.88;45.67;99987.69;5118121;28;1901;-57
2022/04/23 02:58:41;;;;;;;;;;;;;;;17.90;45.67;99993.72;5117393;28;804;-57
2022/04/23 03:01:10;;;;;;;;;;;;;;;17.86;45.58;99979.75;5098036;28;846;-57
2022/04/23 03:03:39;;;;;;;;;;;;;;;17.79;45.47;99971.91;5098038;28;969;-57
2022/04/23 03:06:07;;;;;;;;;;;;;;;17.86;45.28;99959.69;5110514;28;1487;-57
2022/04/23 03:08:33;;;;;;;;;;;;;;;17.85;45.42;99963.56;5098409;28;824;-58
2022/04/23 03:10:58;;;;;;;;;;;;;;;17.80;45.66;99964.47;5117854;28;854;-57
2022/04/23 03:13:24;;;;;;;;;;;;;;;17.83;45.24;99974.06;5097715;28;1252;-58
2022/04/23 03:15:49;;;;;;;;;;;;;;;17.88;45.18;99963.78;5097844;28;1973;-54
2022/04/23 03:18:15;;;;;;;;;;;;;;;17.83;45.33;99971.31;5100458;28;926;-57
2022/04/23 03:20:43;;;;;;;;;;;;;;;17.72;45.40;99960.47;5097053;28;745;-58
2022/04/23 03:23:08;;;;;;;;;;;;;;;17.71;45.62;99964.34;5098016;28;916;-58
2022/04/23 03:25:34;;;;;;;;;;;;;;;17.71;45.35;99964.34;5102900;28;898;-58
2022/04/23 03:28:00;;;;;;;;;;;;;;;17.68;45.20;99958.63;5113126;28;1107;-58
2022/04/23 03:30:26;;;;;;;;;;;;;;;17.71;45.09;99969.00;5098469;28;1141;-57
2022/04/23 03:32:51;;;;;;;;;;;;;;;17.66;44.76;99964.44;5105652;28;918;-57
2022/04/23 03:35:16;;;;;;;;;;;;;;;17.58;44.71;99954.13;5096804;28;1898;-57
2022/04/23 03:37:42;;;;;;;;;;;;;;;17.52;44.36;99947.09;5099322;28;830;-58
2022/04/23 03:40:08;;;;;;;;;;;;;;;17.49;44.38;99948.50;5097124;28;1014;-58
2022/04/23 03:42:34;;;;;;;;;;;;;;;17.41;44.18;99938.97;5096779;28;843;-58
2022/04/23 03:45:04;;;;;;;;;;;;;;;17.43;43.82;99936.78;5102688;28;790;-58
2022/04/23 03:47:31;;;;;;;;;;;;;;;17.38;43.79;99934.09;5105378;28;896;-58
2022/04/23 03:49:57;;;;;;;;;;;;;;;17.36;43.67;99936.34;5114911;28;777;-56
2022/04/23 03:52:22;;;;;;;;;;;;;;;17.28;43.74;99917.78;5097552;28;826;-57
2022/04/23 03:54:47;;;;;;;;;;;;;;;17.37;43.97;99926.16;5101782;28;1901;-57
2022/04/23 03:57:13;;;;;;;;;;;;;;;17.30;44.17;99921.03;5099884;28;1356;-56
2022/04/23 03:59:38;;;;;;;;;;;;;;;17.22;44.13;99913.47;5101947;28;1247;-56
2022/04/23 04:02:04;;;;;;;;;;;;;;;17.24;43.92;99900.25;5099367;28;1183;-56
2022/04/23 04:04:33;;;;;;;;;;;;;;;17.24;43.84;99906.56;5096483;28;841;-57
2022/04/23 04:06:59;;;;;;;;;;;;;;;17.20;43.83;99901.97;5096922;28;1440;-56
2022/04/23 04:09:26;;;;;;;;;;;;;;;17.22;43.81;99907.97;5099137;28;1313;-56
2022/04/23 04:12:06;;;;;;;;;;;;;;;17.19;43.83;99898.38;5099818;28;1246;-57
2022/04/23 04:14:36;;;;;;;;;;;;;;;17.19;43.77;99897.59;5084400;28;1933;-56
2022/04/23 04:17:05;;;;;;;;;;;;;;;17.21;44.01;99909.91;5111444;28;1413;-56
2022/04/23 04:19:32;;;;;;;;;;;;;;;17.19;43.60;99908.56;5110159;28;1373;-57
2022/04/23 04:21:57;;;;;;;;;;;;;;;17.15;43.45;99918.53;5090755;28;841;-57
2022/04/23 04:24:23;;;;;;;;;;;;;;;17.13;43.50;99920.75;5116279;28;849;-55
2022/04/23 04:26:48;;;;;;;;;;;;;;;17.08;43.74;99919.72;5108363;28;900;-56
2022/04/23 04:29:14;;;;;;;;;;;;;;;17.13;43.55;99907.03;5099075;28;830;-55
2022/04/23 04:31:49;;;;;;;;;;;;;;;17.17;43.39;99916.31;5096589;28;962;-56
2022/04/23 04:34:21;;;;;;;;;;;;;;;17.23;43.65;99909.59;5096577;28;835;-57
2022/04/23 04:36:46;;;;;;;;;;;;;;;17.25;44.04;99910.94;5096259;28;1918;-57
2022/04/23 04:39:12;;;;;;;;;;;;;;;17.30;44.21;99926.53;5095838;28;880;-57
2022/04/23 04:41:38;;;;;;;;;;;;;;;17.29;44.28;99922.13;5109372;28;896;-55
2022/04/23 04:44:04;;;;;;;;;;;;;;;17.34;44.50;99926.75;5116141;28;781;-57
2022/04/23 04:46:29;;;;;;;;;;;;;;;17.30;44.40;99926.53;5116136;28;820;-57
2022/04/23 04:48:55;;;;;;;;;;;;;;;17.29;44.37;99927.63;5096261;28;889;-52
2022/04/23 04:51:20;;;;;;;;;;;;;;;17.33;44.69;99933.38;5096185;28;710;-55
2022/04/23 04:53:45;;;;;;;;;;;;;;;17.33;44.43;99925.13;5100286;28;1281;-55
2022/04/23 04:56:11;;;;;;;;;;;;;;;17.38;44.63;99928.59;5096270;28;1972;-53
2022/04/23 04:58:36;;;;;;;;;;;;;;;17.41;44.63;99922.50;5100171;28;1399;-54
2022/04/23 05:01:02;;;;;;;;;;;;;;;17.45;44.79;99923.53;5099475;28;777;-52
2022/04/23 05:03:28;;;;;;;;;;;;;;;17.39;44.73;99913.75;5112765;28;732;-54
2022/04/23 05:05:53;;;;;;;;;;;;;;;17.45;44.96;99911.72;5102877;28;1182;-55
2022/04/23 05:08:19;;;;;;;;;;;;;;;17.42;44.78;99902.16;5110593;28;1483;-55
2022/04/23 05:10:44;;;;;;;;;;;;;;;17.45;44.84;99915.28;5112589;28;1420;-56
2022/04/23 05:13:10;;;;;;;;;;;;;;;17.48;44.82;99922.13;5075479;28;1420;-57
2022/04/23 05:15:37;;;;;;;;;;;;;;;17.47;44.91;99920.47;5088011;28;1905;-56
2022/04/23 05:18:02;;;;;;;;;;;;;;;17.50;44.89;99930.06;5080452;28;1534;-56
2022/04/23 05:20:28;;;;;;;;;;;;;;;17.50;44.87;99924.56;5081780;28;1243;-56
2022/04/23 05:22:54;;;;;;;;;;;;;;;17.50;44.97;99925.41;5076590;28;1411;-57
2022/04/23 05:25:19;;;;;;;;;;;;;;;17.48;44.70;99932.31;5080086;28;1285;-57
2022/04/23 05:27:44;;;;;;;;;;;;;;;17.50;44.99;99935.56;5075385;28;1376;-58
2022/04/23 05:30:10;;;;;;;;;;;;;;;17.48;44.67;99924.06;5077942;28;1404;-54
2022/04/23 05:32:35;;;;;;;;;;;;;;;17.49;44.94;99922.91;5079261;28;1238;-54
2022/04/23 05:35:01;;;;;;;;;;;;;;;17.56;44.49;99917.88;5079775;28;1917;-56
2022/04/23 05:37:26;;;;;;;;;;;;;;;17.49;44.84;99928.41;5079523;28;1036;-57
2022/04/23 05:39:52;;;;;;;;;;;;;;;17.55;44.66;99916.25;5094998;28;861;-56
2022/04/23 05:42:17;;;;;;;;;;;;;;;17.51;44.87;99905.03;5094696;28;971;-55
2022/04/23 05:44:43;;;;;;;;;;;;;;;17.51;44.75;99909.72;5089403;28;975;-56
2022/04/23 05:47:08;;;;;;;;;;;;;;;17.58;44.85;99910.13;5081979;28;1396;-59
2022/04/23 05:49:34;;;;;;;;;;;;;;;17.55;44.99;99905.25;5082117;28;842;-58
2022/04/23 05:51:59;;;;;;;;;;;;;;;17.62;44.74;99919.41;5077253;28;1210;-58
2022/04/23 05:54:24;;;;;;;;;;;;;;;17.61;45.06;99915.84;5079257;28;841;-58
2022/04/23 05:56:50;;;;;;;;;;;;;;;17.62;45.01;99919.41;5082849;28;1902;-58
2022/04/23 05:59:15;;;;;;;;;;;;;;;17.66;44.99;99923.19;5095189;28;818;-58
2022/04/23 06:01:41;;;;;;;;;;;;;;;17.72;44.86;99929.41;5098617;28;896;-58
2022/04/23 06:04:06;;;;;;;;;;;;;;;17.69;44.90;99933.56;5082732;28;869;-60
2022/04/23 06:06:31;;;;;;;;;;;;;;;17.72;45.11;99948.66;5078752;28;794;-59
2022/04/23 06:08:57;;;;;;;;;;;;;;;17.77;45.22;99954.09;5078633;28;828;-59
2022/04/23 06:11:22;;;;;;;;;;;;;;;17.85;45.03;99956.16;5081805;28;935;-58
2022/04/23 06:13:48;;;;;;;;;;;;;;;17.74;45.37;99941.75;5105108;28;1577;-58
2022/04/23 06:16:13;;;;;;;;;;;;;;;17.73;45.42;99939.31;5110299;28;1910;-58
2022/04/23 06:18:38;;;;;;;;;;;;;;;17.77;45.12;99940.34;5102768;28;1229;-58
2022/04/23 06:21:04;;;;;;;;;;;;;;;17.79;45.30;99947.16;5099970;28;1468;-58
2022/04/23 06:23:29;;;;;;;;;;;;;;;17.81;45.36;99930.38;5098527;28;1455;-57
2022/04/23 06:25:55;;;;;;;;;;;;;;;17.82;45.07;99929.22;5099824;28;1416;-57
2022/04/23 06:28:20;;;;;;;;;;;;;;;17.79;45.46;99929.84;5088345;28;1530;-58
2022/04/23 06:30:46;;;;;;;;;;;;;;;17.81;45.23;99935.03;5102241;28;1337;-58
2022/04/23 06:33:11;;;;;;;;;;;;;;;17.88;45.25;99940.94;5101805;28;1273;-59
2022/04/23 06:35:36;;;;;;;;;;;;;;;17.88;45.24;99935.44;5107532;28;1984;-58
2022/04/23 06:38:02;;;;;;;;;;;;;;;17.96;45.31;99951.28;5098960;28;1587;-58
2022/04/23 06:40:27;;;;;;;;;;;;;;;17.82;45.84;99947.66;5098731;28;932;-58
2022/04/23 06:42:53;;;;;;;;;;;;;;;17.88;45.71;99935.44;5098640;28;778;-57
2022/04/23 06:45:19;;;;;;;;;;;;;;;17.89;45.65;99939.84;5080637;28;1235;-57
2022/04/23 06:47:44;;;;;;;;;;;;;;;17.85;45.43;99925.88;5098726;28;950;-59
2022/04/23 06:50:10;;;;;;;;;;;;;;;17.91;45.52;99941.19;5098888;28;764;-59
2022/04/23 06:52:35;;;;;;;;;;;;;;;17.92;45.72;99931.84;5098073;28;1432;-58
2022/04/23 06:55:01;;;;;;;;;;;;;;;17.88;45.93;99932.69;5098703;28;1901;-58
2022/04/23 06:57:26;;;;;;;;;;;;;;;17.89;45.97;99924.16;5099863;28;1401;-59
2022/04/23 06:59:52;;;;;;;;;;;;;;;17.96;45.71;99932.03;5098691;28;931;-59
2022/04/23 07:02:18;;;;;;;;;;;;;;;17.94;45.69;99917.78;5103989;28;1292;-59
2022/04/23 07:04:43;;;;;;;;;;;;;;;17.98;45.80;99918.81;5114649;28;1099;-58
2022/04/23 07:07:10;;;;;;;;;;;;;;;18.00;45.70;99916.56;5104581;28;790;-58
2022/04/23 07:09:35;;;;;;;;;;;;;;;17.97;45.74;99925.41;5098315;28;778;-59
2022/04/23 07:12:01;;;;;;;;;;;;;;;18.04;45.79;99916.78;5098010;28;845;-58
2022/04/23 07:14:27;;;;;;;;;;;;;;;18.03;46.05;99907.69;5098513;28;1155;-58
2022/04/23 07:16:52;;;;;;;;;;;;;;;18.07;45.83;99905.97;5112776;28;1914;-60
2022/04/23 07:19:17;;;;;;;;;;;;;;;18.06;46.04;99911.75;5098018;28;766;-60
2022/04/23 07:21:43;;;;;;;;;;;;;;;18.00;46.10;99904.75;5098107;28;863;-58
2022/04/23 07:24:10;;;;;;;;;;;;;;;18.04;45.95;99908.53;5098310;28;821;-60
2022/04/23 07:26:35;;;;;;;;;;;;;;;18.06;46.06;99898.84;5101188;28;1276;-59
2022/04/23 07:29:02;;;;;;;;;;;;;;;18.08;45.81;99902.09;5106849;28;1515;-60
2022/04/23 07:31:28;;;;;;;;;;;;;;;18.09;46.18;99908.41;5110152;28;1345;-59
2022/04/23 07:39:21;;;;;;;;;;;;;;;17.99;45.48;99909.41;5103720;28;952;-59
2022/04/23 07:41:47;;;;;;;;;;;;;;;17.76;44.95;99897.44;5110693;28;1590;-61
2022/04/23 07:44:12;;;;;;;;;;;;;;;17.62;43.44;99908.41;5109199;28;1340;-60
2022/04/23 07:46:39;;;;;;;;;;;;;;;17.45;42.30;99912.53;5113030;28;898;-61
2022/04/23 07:49:04;;;;;;;;;;;;;;;17.23;41.60;99920.59;5097648;28;770;-60
2022/04/23 07:51:30;;;;;;;;;;;;;;;16.98;41.24;99902.56;5100618;28;829;-61
2022/04/23 07:53:55;;;;;;;;;;;;;;;17.04;40.81;99913.19;5100072;28;1359;-60
2022/04/23 07:56:21;;;;;;;;;;;;;;;16.96;40.36;99913.03;5115522;28;1914;-59
2022/04/23 07:58:46;;;;;;;;;;;;;;;17.03;41.08;99924.47;5115794;28;1357;-58
2022/04/23 08:01:12;;;;;;;;;;;;;;;17.08;42.28;99919.72;5085090;28;888;-58
2022/04/23 08:03:37;;;;;;;;;;;;;;;17.23;43.06;99926.09;5101906;28;1188;-58
2022/04/23 08:06:03;;;;;;;;;;;;;;;17.32;43.68;99926.22;5101753;28;1349;-57
2022/04/23 08:08:28;;;;;;;;;;;;;;;17.41;44.19;99927.19;5104837;28;1348;-58
2022/04/23 08:10:53;;;;;;;;;;;;;;;17.45;44.31;99925.47;5097358;28;1496;-58
2022/04/23 08:13:20;;;;;;;;;;;;;;;17.44;44.54;99930.13;5097718;28;1448;-59
2022/04/23 08:15:45;;;;;;;;;;;;;;;17.43;44.89;99925.78;5100701;28;1910;-58
2022/04/23 08:18:11;;;;;;;;;;;;;;;17.49;44.96;99915.50;5101136;28;1225;-59
2022/04/23 08:20:38;;;;;;;;;;;;;;;17.50;45.06;99919.06;5099631;28;1257;-59
2022/04/23 08:23:04;;;;;;;;;;;;;;;17.49;45.35;99911.94;5097954;28;1195;-60
2022/04/23 08:25:29;;;;;;;;;;;;;;;17.50;45.42;99910.81;5108695;28;1228;-58
2022/04/23 08:30:34;;;;;;;;;;;;;;;17.60;45.41;99908.72;5109318;28;1177;-59
2022/04/23 08:30:41;;;;;;;;;;;;;;;17.70;45.16;99902.22;5096741;28;1289;-58
2022/04/23 08:33:06;;;;;;;;;;;;;;;17.61;45.42;99907.59;5091153;28;1219;-58
2022/04/23 08:35:32;;;;;;;;;;;;;;;17.65;45.38;99909.75;5100104;28;1905;-59
2022/04/23 08:37:59;;;;;;;;;;;;;;;17.69;45.32;99911.59;5097196;28;1368;-59
2022/04/23 08:40:25;;;;;;;;;;;;;;;17.70;45.66;99915.16;5101298;28;1413;-58
2022/04/23 08:42:51;;;;;;;;;;;;;;;17.70;45.85;99907.72;5096780;28;1373;-58
2022/04/23 08:45:16;;;;;;;;;;;;;;;17.72;45.80;99916.47;5078674;28;1424;-59
2022/04/23 08:47:46;;;;;;;;;;;;;;;17.74;45.56;99908.75;5096426;28;1365;-59
2022/04/23 08:50:15;;;;;;;;;;;;;;;17.71;45.88;99898.38;5099583;28;1519;-59
2022/04/23 08:52:41;;;;;;;;;;;;;;;17.73;45.92;99904.38;5077603;28;922;-59
2022/04/23 08:55:07;;;;;;;;;;;;;;;17.76;45.82;99901.00;5097698;28;1901;-60
2022/04/23 08:57:32;;;;;;;;;;;;;;;17.82;45.94;99887.16;5096350;28;881;-59
2022/04/23 08:59:58;;;;;;;;;;;;;;;17.82;45.87;99895.41;5096579;28;850;-59
2022/04/23 09:02:23;;;;;;;;;;;;;;;17.87;45.98;99889.84;5096465;28;848;-58
2022/04/23 09:04:49;;;;;;;;;;;;;;;17.87;46.10;99889.84;5096448;28;760;-59
2022/04/23 09:07:21;;;;;;;;;;;;;;;17.87;46.22;99889.84;5096537;28;858;-58
2022/04/23 09:09:50;;;;;;;;;;;;;;;17.88;46.28;99896.94;5100973;28;875;-58
2022/04/23 09:12:17;;;;;;;;;;;;;;;17.87;46.42;99892.59;5096010;28;1023;-58
2022/04/23 09:14:44;;;;;;;;;;;;;;;17.93;46.17;99900.44;5077356;28;1910;-58
2022/04/23 09:25:31;;;;;;;;;;;;;;;18.00;46.52;99897.28;5117081;28;833;-59
2022/04/23 09:28:12;;;;;;;;;;;;;;;17.96;46.32;99896.28;5119610;28;797;-58
2022/04/23 09:30:37;;;;;;;;;;;;;;;18.01;46.16;99904.44;5087831;28;1466;-60
2022/04/23 09:33:03;;;;;;;;;;;;;;;18.02;46.20;99895.06;5106943;28;1128;-58
2022/04/23 09:35:28;;;;;;;;;;;;;;;18.06;46.34;99898.00;5108473;28;1914;-58
2022/04/23 09:38:12;;;;;;;;;;;;;;;18.03;46.17;99899.44;5115559;28;1372;-58
2022/04/23 09:40:37;;;;;;;;;;;;;;;18.01;46.50;99901.69;5105629;28;1412;-59
2022/04/23 09:43:04;;;;;;;;;;;;;;;18.08;46.31;99898.53;5099858;28;821;-60
2022/04/23 09:45:29;;;;;;;;;;;;;;;18.09;46.30;99897.41;5099741;28;769;-59
2022/04/23 09:47:56;;;;;;;;;;;;;;;18.09;46.54;99906.47;5100959;28;863;-57
2022/04/23 09:50:21;;;;;;;;;;;;;;;18.15;46.53;99900.88;5099743;28;789;-58
2022/04/23 09:52:49;;;;;;;;;;;;;;;18.18;46.71;99894.78;5099262;28;825;-60
2022/04/23 09:55:19;;;;;;;;;;;;;;;18.12;46.64;99892.09;5099301;28;1980;-59
2022/04/23 09:57:45;;;;;;;;;;;;;;;18.22;46.62;99885.59;5099384;28;849;-59
2022/04/23 10:00:12;;;;;;;;;;;;;;;18.05;45.97;99879.91;5086398;28;820;-59
2022/04/23 10:02:44;;;;;;;;;;;;;;;17.88;44.92;99891.44;5109025;28;814;-59
2022/04/23 10:05:45;;;;;;;;;;;;;;;17.55;43.54;99881.31;5118779;28;837;-60
2022/04/23 10:08:12;;;;;;;;;;;;;;;17.38;42.04;99883.81;5100042;28;1535;-60
2022/04/23 10:10:56;;;;;;;;;;;;;;;17.17;41.25;99883.34;5119376;28;754;-60
2022/04/23 10:13:23;;;;;;;;;;;;;;;17.04;40.71;99879.41;5099501;28;1263;-59
2022/04/23 10:15:49;;;;;;;;;;;;;;;16.92;40.35;99883.41;5101355;28;1913;-60
2022/04/23 10:18:15;;;;;;;;;;;;;;;16.95;40.43;99876.53;5101344;28;1144;-60
2022/04/23 10:20:40;;;;;;;;;;;;;;;17.00;40.95;99875.63;5101771;28;1429;-60
2022/04/23 10:23:11;;;;;;;;;;;;;;;17.06;41.67;99874.44;5107835;28;1404;-59
2022/04/23 10:25:57;;;;;;;;;;;;;;;17.28;43.10;99879.31;5088710;28;1508;-60
2022/04/23 10:28:22;;;;;;;;;;;;;;;17.67;45.66;99889.09;5086912;28;1218;-60
2022/04/23 10:30:48;;;;;;;;;;;;;;;18.01;47.10;99882.44;5111890;28;909;-60
2022/04/23 10:33:26;;;;;;;;;;;;;;;18.27;47.65;99877.25;5102642;28;1153;-60
2022/04/23 10:36:01;;;;;;;;;;;;;;;18.64;47.95;99880.84;5100134;28;1918;-60
2022/04/23 10:38:27;;;;;;;;;;;;;;;18.83;48.29;99885.41;5105184;28;1170;-59
2022/04/23 10:40:53;;;;;;;;;;;;;;;18.80;47.53;99892.34;5104679;28;1158;-60
2022/04/23 10:43:19;;;;;;;;;;;;;;;18.17;47.64;99887.63;5083039;28;1183;-61
2022/04/23 10:45:45;;;;;;;;;;;;;;;17.67;46.40;99883.59;5099661;28;1292;-60
2022/04/23 10:48:23;;;;;;;;;;;;;;;17.68;44.10;99881.66;5098554;28;883;-60
2022/04/23 10:51:01;;;;;;;;;;;;;;;17.53;43.01;99885.47;5104625;28;1103;-61
2022/04/23 10:53:39;;;;;;;;;;;;;;;17.41;41.85;99883.22;5098127;28;857;-60
2022/04/23 10:56:07;;;;;;;;;;;;;;;17.29;41.25;99883.66;5098768;28;1974;-59
2022/04/23 10:58:33;;;;;;;;;;;;;;;17.16;41.19;99881.72;5098455;28;905;-59
2022/04/23 11:01:20;;;;;;;;;;;;;;;17.04;40.60;99882.97;5098715;28;781;-60
2022/04/23 11:03:52;;;;;;;;;;;;;;;16.89;40.21;99891.44;5104503;28;789;-62
2022/04/23 11:12:16;;;;;;;;;;;;;;;17.78;46.93;99885.03;5117552;28;845;-61
2022/04/23 11:14:44;;;;;;;;;;;;;;;18.15;48.25;99889.88;5116623;28;1304;-62
2022/04/23 11:17:20;;;;;;;;;;;;;;;18.42;48.93;99889.84;5107465;28;848;-62
2022/04/23 11:19:49;;;;;;;;;;;;;;;18.65;49.32;99884.44;5097973;28;876;-61
2022/04/23 11:22:15;;;;;;;;;;;;;;;18.80;49.20;99881.31;5097973;28;982;-60
2022/04/23 11:24:41;;;;;;;;;;;;;;;18.55;48.08;99887.38;5080017;28;826;-59
2022/04/23 11:27:08;;;;;;;;;;;;;;;18.21;46.60;99877.63;5099198;28;1309;-60
2022/04/23 11:29:34;;;;;;;;;;;;;;;17.84;44.54;99880.25;5098898;28;1219;-60
2022/04/23 11:31:59;;;;;;;;;;;;;;;17.63;43.26;99874.31;5107063;28;1409;-60
2022/04/23 11:34:27;;;;;;;;;;;;;;;17.43;42.44;99876.31;5096973;28;1412;-61
2022/04/23 11:36:53;;;;;;;;;;;;;;;17.34;41.64;99880.84;5098351;28;1978;-60
2022/04/23 11:39:19;;;;;;;;;;;;;;;17.19;41.26;99872.84;5106165;28;1393;-61
2022/04/23 11:41:49;;;;;;;;;;;;;;;17.07;40.71;99868.66;5081499;28;1270;-60
2022/04/23 11:44:15;;;;;;;;;;;;;;;17.00;40.13;99872.88;5100060;28;1494;-61
2022/04/23 11:46:41;;;;;;;;;;;;;;;16.88;39.98;99876.88;5117285;28;1023;-60
2022/04/23 11:49:07;;;;;;;;;;;;;;;16.91;40.39;99870.00;5097786;28;1226;-61
2022/04/23 11:51:32;;;;;;;;;;;;;;;17.15;42.16;99880.06;5101774;28;1448;-60
2022/04/23 11:53:58;;;;;;;;;;;;;;;17.55;45.69;99870.31;5100971;28;1206;-61
2022/04/23 11:56:29;;;;;;;;;;;;;;;18.06;47.62;99874.09;5099764;28;1914;-62
2022/04/23 11:58:56;;;;;;;;;;;;;;;18.37;49.01;99887.22;5098864;28;1170;-60
2022/04/23 12:01:22;;;;;;;;;;;;;;;18.67;49.37;99889.63;5098413;28;1312;-60
2022/04/23 12:03:49;;;;;;;;;;;;;;;18.89;49.29;99886.94;5101720;28;1310;-60
2022/04/23 12:06:14;;;;;;;;;;;;;;;18.75;48.58;99891.66;5100072;28;1207;-61
2022/04/23 12:08:40;;;;;;;;;;;;;;;18.38;46.62;99877.81;5101993;28;1393;-61
2022/04/23 12:11:19;;;;;;;;;;;;;;;18.08;45.19;99876.53;5110799;28;1171;-60
2022/04/23 12:13:44;;;;;;;;;;;;;;;17.77;43.64;99871.59;5098432;28;1480;-62
2022/04/23 12:16:10;;;;;;;;;;;;;;;17.55;43.00;99864.00;5079147;28;1983;-61
2022/04/23 12:18:36;;;;;;;;;;;;;;;17.33;42.22;99861.91;5105039;28;1344;-60
2022/04/23 12:21:05;;;;;;;;;;;;;;;17.30;41.74;99866.06;5113317;28;1349;-60
2022/04/23 12:23:40;;;;;;;;;;;;;;;17.18;41.19;99862.97;5096968;28;1357;-61
2022/04/23 12:26:09;;;;;;;;;;;;;;;17.08;40.89;99856.56;5103968;28;1440;-60
2022/04/23 12:42:20;;;;;;;;;;;;;;;18.61;49.47;99869.66;5096678;28;861;-60
2022/04/23 12:44:46;;;;;;;;;;;;;;;18.66;49.29;99866.75;5098581;28;887;-61
2022/04/23 12:47:16;;;;;;;;;;;;;;;18.38;47.73;99866.81;5096948;28;839;-61
2022/04/23 12:49:47;;;;;;;;;;;;;;;18.03;46.26;99866.41;5096907;28;812;-61
2022/04/23 12:52:14;;;;;;;;;;;;;;;17.78;44.53;99867.69;5096668;28;840;-61
2022/04/23 12:54:40;;;;;;;;;;;;;;;17.64;43.26;99864.94;5096432;28;949;-61
2022/04/23 12:57:15;;;;;;;;;;;;;;;17.47;42.35;99864.69;5102408;28;1972;-59
2022/04/23 12:59:40;;;;;;;;;;;;;;;17.32;41.89;99863.03;5099055;28;858;-58
2022/04/23 13:02:06;;;;;;;;;;;;;;;17.20;41.25;99858.81;5107450;28;1368;-60
2022/04/23 13:04:31;;;;;;;;;;;;;;;17.12;41.05;99867.75;5101129;28;849;-59
2022/04/23 13:09:40;;;;;;;;;;;;;;;17.02;40.93;99867.91;5115729;28;1392;-61
2022/04/23 13:12:06;;;;;;;;;;;;;;;16.91;40.67;99868.09;5100651;28;1428;-60
2022/04/23 13:14:31;;;;;;;;;;;;;;;16.88;40.85;99871.41;5095736;28;1694;-61
2022/04/23 13:16:57;;;;;;;;;;;;;;;17.01;41.77;99860.78;5108882;28;1988;-60
2022/04/23 13:19:23;;;;;;;;;;;;;;;17.18;43.36;99862.97;5106328;28;1435;-60
2022/04/23 13:21:48;;;;;;;;;;;;;;;17.64;45.66;99862.19;5103696;28;860;-61
2022/04/23 13:24:14;;;;;;;;;;;;;;;18.03;47.53;99874.69;5111846;27;1324;-59
2022/04/23 13:26:39;;;;;;;;;;;;;;;18.31;48.92;99871.91;5110595;28;1340;-61
2022/04/23 13:29:05;;;;;;;;;;;;;;;18.67;49.05;99873.09;5107497;28;1337;-60
2022/04/23 13:31:30;;;;;;;;;;;;;;;18.83;49.12;99863.38;5106957;28;856;-62
2022/04/23 13:33:56;;;;;;;;;;;;;;;18.36;49.58;99865.50;5104945;28;1407;-61